Time;durP1;ratioP1;P1;durP2;ratioP2;P2;SDS_P1;SDS_P2;PMS_P1;PMS_P2;Temp;Humidity;BMP_temperature;BMP_pressure;BME280_temperature;BME280_humidity;BME280_pressure;Samples;Min_cycle;Max_cycle;Signal;HPM_P1;HPM_P2
2023/03/30 00:02:29;;;;;;;69.07;7.75;;;13.80;55.50;;;;;;5004837;28;20184;-85
2023/03/30 00:04:56;;;;;;;69.78;8.48;;;13.80;46.50;;;;;;5004743;28;20158;-84
2023/03/30 00:07:21;;;;;;;69.40;7.20;;;13.80;39.80;;;;;;5003848;28;20710;-84
2023/03/30 00:09:47;;;;;;;68.07;7.13;;;13.80;46.80;;;;;;5004241;28;20175;-85
2023/03/30 00:12:19;;;;;;;70.00;7.77;;;13.90;49.30;;;;;;5006599;28;20185;-85
2023/03/30 00:14:45;;;;;;;69.93;6.10;;;13.90;45.10;;;;;;5007848;28;20158;-85
2023/03/30 00:17:11;;;;;;;70.32;6.20;;;13.90;46.60;;;;;;5007610;28;20170;-85
2023/03/30 00:19:37;;;;;;;67.90;5.20;;;13.90;48.90;;;;;;5006444;28;20246;-84
2023/03/30 00:22:08;;;;;;;74.70;6.85;;;13.90;40.40;;;;;;5005736;28;20453;-84
2023/03/30 00:24:34;;;;;;;67.40;5.10;;;13.90;38.10;;;;;;5008517;28;20174;-85
2023/03/30 00:27:00;;;;;;;74.10;6.30;;;13.90;43.80;;;;;;5007882;28;20763;-84
2023/03/30 00:29:26;;;;;;;68.37;5.37;;;13.90;38.40;;;;;;5008284;28;20413;-84
2023/03/30 00:31:55;;;;;;;74.03;5.30;;;13.90;38.70;;;;;;5007458;28;20697;-84
2023/03/30 00:34:21;;;;;;;70.87;5.10;;;13.80;40.20;;;;;;5006763;28;20440;-84
2023/03/30 00:36:47;;;;;;;67.83;4.53;;;13.80;39.60;;;;;;5007806;28;20410;-84
2023/03/30 00:39:17;;;;;;;66.93;4.43;;;13.80;37.60;;;;;;5006444;28;20170;-85
2023/03/30 00:41:44;;;;;;;68.22;5.45;;;13.70;36.50;;;;;;5005957;28;20449;-85
2023/03/30 00:44:47;;;;;;;66.07;4.80;;;13.60;40.80;;;;;;5005584;28;20531;-84
2023/03/30 00:47:14;;;;;;;67.88;6.70;;;13.60;35.60;;;;;;5007009;28;20425;-84
2023/03/30 00:49:40;;;;;;;68.78;7.53;;;13.50;35.90;;;;;;5006319;28;20166;-84
2023/03/30 00:52:08;;;;;;;68.17;8.27;;;13.50;38.60;;;;;;5007214;28;20162;-85
2023/03/30 00:54:34;;;;;;;67.10;7.00;;;13.50;35.90;;;;;;5006077;28;20460;-85
2023/03/30 00:57:00;;;;;;;67.97;7.53;;;13.40;38.60;;;;;;5005743;28;20421;-84
2023/03/30 00:59:25;;;;;;;66.47;6.53;;;13.40;36.50;;;;;;5005255;28;20186;-84
2023/03/30 01:01:51;;;;;;;67.97;6.77;;;13.30;41.40;;;;;;5006789;28;20199;-85
2023/03/30 01:04:17;;;;;;;71.73;6.83;;;13.30;42.40;;;;;;5005314;28;20241;-84
2023/03/30 01:06:47;;;;;;;68.90;7.03;;;13.30;45.30;;;;;;5006487;28;20163;-84
2023/03/30 01:09:14;;;;;;;71.03;7.45;;;13.30;49.00;;;;;;5006275;28;20471;-84
2023/03/30 01:11:41;;;;;;;70.75;8.93;;;13.20;50.40;;;;;;5006750;28;20170;-84
2023/03/30 01:14:10;;;;;;;68.85;7.03;;;13.20;53.60;;;;;;5006416;28;20187;-84
2023/03/30 01:17:12;;;;;;;70.68;7.88;;;13.10;59.50;;;;;;5006448;28;20171;-84
2023/03/30 01:20:08;;;;;;;69.82;7.28;;;13.10;57.30;;;;;;5005024;28;20245;-84
2023/03/30 01:23:04;;;;;;;68.60;8.15;;;13.10;54.50;;;;;;5003708;28;20213;-83
2023/03/30 01:25:39;;;;;;;67.80;7.63;;;13.20;54.50;;;;;;5005813;28;20634;-84
2023/03/30 01:28:15;;;;;;;70.93;6.90;;;13.20;52.90;;;;;;5004976;28;20266;-84
2023/03/30 01:31:12;;;;;;;68.47;7.45;;;13.30;51.40;;;;;;5005852;28;20190;-85
2023/03/30 01:34:11;;;;;;;73.70;8.70;;;13.50;42.60;;;;;;5006818;28;20193;-84
2023/03/30 01:37:10;;;;;;;68.57;6.13;;;13.70;35.90;;;;;;5004420;28;20163;-84
2023/03/30 01:39:58;;;;;;;67.43;6.22;;;13.90;25.20;;;;;;5005596;28;20174;-84
2023/03/30 01:42:47;;;;;;;69.20;6.20;;;14.00;22.20;;;;;;5006158;28;20245;-85
2023/03/30 01:45:28;;;;;;;73.38;6.07;;;14.20;19.40;;;;;;4992514;28;20214;-85
2023/03/30 01:47:56;;;;;;;68.72;8.50;;;14.30;15.90;;;;;;5005740;28;20619;-85
2023/03/30 01:50:48;;;;;;;73.07;4.97;;;14.30;15.20;;;;;;5007010;28;20165;-85
2023/03/30 01:53:24;;;;;;;74.10;6.53;;;14.40;11.30;;;;;;5005341;28;20210;-84
2023/03/30 01:55:50;;;;;;;74.90;5.70;;;14.40;10.30;;;;;;5005856;28;20178;-85
2023/03/30 01:58:25;;;;;;;72.53;5.80;;;14.50;14.00;;;;;;5006427;28;20766;-84
2023/03/30 02:00:52;;;;;;;70.15;6.28;;;14.50;14.20;;;;;;5004994;28;20169;-84
2023/03/30 02:03:26;;;;;;;69.43;5.00;;;14.50;9.50;;;;;;5005728;28;20233;-84
2023/03/30 02:05:56;;;;;;;68.87;5.13;;;14.50;10.00;;;;;;5005343;28;20159;-85
2023/03/30 02:08:27;;;;;;;68.93;5.27;;;14.50;11.80;;;;;;5005280;28;20390;-85
2023/03/30 02:10:56;;;;;;;70.93;6.87;;;14.50;12.70;;;;;;5005765;28;20389;-84
2023/03/30 02:13:25;;;;;;;70.87;6.20;;;14.60;10.50;;;;;;5004780;28;20426;-85
2023/03/30 02:15:58;;;;;;;66.80;4.93;;;14.70;11.20;;;;;;5005054;28;20425;-84
2023/03/30 02:18:24;;;;;;;68.17;5.70;;;14.70;11.10;;;;;;5005082;28;20451;-85
2023/03/30 02:20:50;;;;;;;69.07;5.17;;;14.70;13.10;;;;;;5005009;28;20449;-85
2023/03/30 02:23:22;;;;;;;68.90;4.87;;;14.80;11.60;;;;;;5005635;28;20553;-84
2023/03/30 02:25:48;;;;;;;73.50;5.20;;;14.80;10.70;;;;;;5005211;28;21019;-85
2023/03/30 02:28:15;;;;;;;68.70;5.30;;;14.80;12.30;;;;;;5005027;28;20448;-84
2023/03/30 02:30:44;;;;;;;69.77;5.50;;;14.80;10.80;;;;;;5004905;28;20448;-84
2023/03/30 02:33:24;;;;;;;67.90;5.60;;;14.80;9.00;;;;;;5003931;28;20840;-84
2023/03/30 02:36:18;;;;;;;71.37;5.30;;;14.80;8.80;;;;;;5004832;28;20436;-85
2023/03/30 02:39:14;;;;;;;70.53;4.63;;;14.70;7.40;;;;;;5004550;28;20501;-85
2023/03/30 02:41:52;;;;;;;70.27;5.03;;;14.70;6.50;;;;;;5003274;28;20477;-84
2023/03/30 02:44:27;;;;;;;67.40;5.60;;;14.70;7.20;;;;;;5003714;28;20468;-85
2023/03/30 02:47:19;;;;;;;73.30;7.60;;;14.80;9.00;;;;;;5003158;28;20400;-84
2023/03/30 02:49:51;;;;;;;66.87;4.77;;;14.70;8.70;;;;;;4993856;28;20809;-84
2023/03/30 02:52:35;;;;;;;68.60;5.00;;;14.70;9.70;;;;;;5003729;28;20563;-84
2023/03/30 02:55:28;;;;;;;68.33;4.67;;;14.70;10.40;;;;;;5003498;28;20796;-84
2023/03/30 02:57:56;;;;;;;67.80;5.00;;;14.60;10.90;;;;;;5004671;28;20393;-84
2023/03/30 03:00:43;;;;;;;74.10;5.20;;;14.60;14.30;;;;;;5004781;28;20409;-84
2023/03/30 03:03:37;;;;;;;72.50;6.60;;;14.60;12.00;;;;;;5005094;28;20467;-85
2023/03/30 03:06:04;;;;;;;70.47;5.80;;;14.50;14.70;;;;;;5004786;28;20409;-85
2023/03/30 03:08:36;;;;;;;68.67;4.70;;;14.50;14.10;;;;;;5004807;28;20397;-85
2023/03/30 03:11:01;;;;;;;69.97;4.60;;;14.50;16.70;;;;;;5003727;28;20414;-84
2023/03/30 03:13:30;;;;;;;67.40;4.97;;;14.50;16.50;;;;;;5002512;28;20452;-85
2023/03/30 03:16:00;;;;;;;72.60;6.30;;;14.50;17.30;;;;;;5003556;28;20198;-85
2023/03/30 03:18:25;;;;;;;67.93;5.20;;;14.40;18.60;;;;;;4987511;28;20453;-84
2023/03/30 03:20:51;;;;;;;68.30;5.40;;;14.50;18.50;;;;;;5003633;28;20409;-84
2023/03/30 03:23:17;;;;;;;69.20;5.13;;;14.60;16.80;;;;;;5003157;28;20198;-85
2023/03/30 03:25:42;;;;;;;71.30;5.67;;;14.60;17.00;;;;;;5003950;28;20222;-84
2023/03/30 03:28:08;;;;;;;68.40;4.50;;;14.60;18.90;;;;;;5002848;28;20174;-85
2023/03/30 03:30:34;;;;;;;70.80;4.80;;;14.50;21.40;;;;;;5002690;28;20189;-85
2023/03/30 03:33:00;;;;;;;66.87;4.63;;;14.50;22.70;;;;;;5003143;28;20733;-85
2023/03/30 03:35:26;;;;;;;69.27;5.03;;;14.50;21.60;;;;;;5003187;28;20201;-85
2023/03/30 03:37:51;;;;;;;70.20;4.60;;;14.50;23.30;;;;;;5003492;28;20513;-85
2023/03/30 03:40:17;;;;;;;69.53;5.40;;;14.40;25.30;;;;;;5002902;28;20409;-84
2023/03/30 03:42:43;;;;;;;76.60;4.47;;;14.30;30.40;;;;;;5004115;28;20194;-84
2023/03/30 03:45:09;;;;;;;69.80;5.30;;;14.20;30.10;;;;;;5003406;28;20221;-85
2023/03/30 03:47:35;;;;;;;69.93;5.80;;;14.10;37.30;;;;;;5004274;28;20253;-85
2023/03/30 03:50:08;;;;;;;71.40;4.60;;;14.10;37.30;;;;;;5002830;28;20433;-84
2023/03/30 03:52:34;;;;;;;68.70;4.77;;;14.10;38.80;;;;;;5000620;28;20186;-84
2023/03/30 03:55:00;;;;;;;66.43;4.60;;;14.00;40.80;;;;;;5001259;28;20504;-85
2023/03/30 03:57:26;;;;;;;68.97;4.90;;;14.00;41.20;;;;;;4999861;28;20461;-84
2023/03/30 03:59:53;;;;;;;67.60;4.53;;;13.90;43.20;;;;;;5000415;28;20175;-84
2023/03/30 04:02:19;;;;;;;70.00;5.57;;;13.90;44.10;;;;;;5000143;28;20822;-84
2023/03/30 04:04:45;;;;;;;68.17;4.70;;;13.90;45.30;;;;;;5000841;28;20485;-84
2023/03/30 04:07:11;;;;;;;71.07;5.87;;;13.90;45.70;;;;;;5001672;28;20398;-84
2023/03/30 04:09:36;;;;;;;72.83;5.43;;;13.90;45.30;;;;;;5001330;28;20162;-84
2023/03/30 04:12:02;;;;;;;70.27;6.50;;;13.90;47.10;;;;;;5001362;28;20167;-85
2023/03/30 04:14:28;;;;;;;70.00;5.90;;;13.90;47.10;;;;;;5001750;28;20186;-84
2023/03/30 04:16:56;;;;;;;72.33;5.67;;;14.00;45.90;;;;;;5003172;28;20448;-84
2023/03/30 04:19:24;;;;;;;72.70;6.40;;;14.10;45.10;;;;;;5000833;28;20173;-84
2023/03/30 04:21:50;;;;;;;69.13;6.07;;;14.10;44.60;;;;;;5002189;28;20197;-84
2023/03/30 04:24:16;;;;;;;68.67;6.20;;;14.10;44.90;;;;;;5001649;28;20413;-84
2023/03/30 04:26:47;;;;;;;78.78;6.75;;;14.10;45.30;;;;;;5001215;28;20444;-84
2023/03/30 04:29:15;;;;;;;75.67;7.10;;;14.20;47.10;;;;;;5002646;28;20480;-84
2023/03/30 04:31:45;;;;;;;70.63;6.40;;;14.20;46.70;;;;;;4999827;28;20455;-84
2023/03/30 04:34:12;;;;;;;69.80;6.87;;;14.20;46.60;;;;;;5000652;28;20194;-84
2023/03/30 04:36:42;;;;;;;72.80;6.75;;;14.30;45.80;;;;;;5001000;28;20505;-84
2023/03/30 04:39:10;;;;;;;74.13;7.50;;;14.30;47.00;;;;;;4999559;28;20542;-83
2023/03/30 04:41:36;;;;;;;71.68;5.47;;;14.30;45.30;;;;;;5001983;28;20509;-84
2023/03/30 04:44:08;;;;;;;74.23;7.10;;;14.30;49.00;;;;;;4999926;28;20191;-84
2023/03/30 04:46:34;;;;;;;71.23;6.30;;;14.30;50.40;;;;;;5000982;28;20461;-84
2023/03/30 04:49:00;;;;;;;74.97;7.00;;;14.30;51.40;;;;;;5001184;28;20406;-84
2023/03/30 04:51:27;;;;;;;73.00;6.47;;;14.30;50.30;;;;;;5000916;28;20185;-84
2023/03/30 04:54:05;;;;;;;69.37;6.33;;;14.30;51.10;;;;;;4997559;28;20453;-84
2023/03/30 04:56:30;;;;;;;72.20;7.20;;;14.30;51.90;;;;;;5004422;28;20451;-84
2023/03/30 04:58:56;;;;;;;84.17;7.30;;;14.30;52.50;;;;;;5003968;28;20417;-84
2023/03/30 05:01:23;;;;;;;67.67;5.70;;;14.30;55.00;;;;;;5004385;28;20194;-84
2023/03/30 05:03:48;;;;;;;74.00;6.40;;;14.30;55.20;;;;;;5005264;28;20190;-84
2023/03/30 05:06:14;;;;;;;74.53;8.10;;;14.30;53.30;;;;;;5005230;28;20410;-84
2023/03/30 05:08:40;;;;;;;74.30;7.03;;;14.30;55.60;;;;;;5005318;28;20258;-84
2023/03/30 05:11:05;;;;;;;70.90;6.90;;;14.30;55.60;;;;;;5004708;28;20171;-84
2023/03/30 05:13:31;;;;;;;76.27;7.27;;;14.30;56.50;;;;;;5005592;28;20265;-84
2023/03/30 05:15:58;;;;;;;70.40;7.50;;;14.30;55.30;;;;;;5005217;28;20626;-84
2023/03/30 05:18:23;;;;;;;70.28;7.65;;;14.30;55.90;;;;;;5001896;28;20409;-83
2023/03/30 05:20:49;;;;;;;71.83;7.60;;;14.30;56.20;;;;;;5002106;28;20190;-83
2023/03/30 05:23:15;;;;;;;71.30;7.20;;;14.30;55.10;;;;;;4998420;28;20573;-84
2023/03/30 05:25:45;;;;;;;71.17;7.20;;;14.30;54.30;;;;;;5000155;28;20195;-84
2023/03/30 05:28:11;;;;;;;80.27;7.10;;;14.30;56.50;;;;;;5000302;28;20519;-83
2023/03/30 05:30:37;;;;;;;72.87;7.40;;;14.30;55.90;;;;;;5000835;28;20405;-83
2023/03/30 05:33:04;;;;;;;75.27;8.00;;;14.30;55.20;;;;;;5001353;28;20425;-84
2023/03/30 05:35:29;;;;;;;80.00;10.23;;;14.30;57.20;;;;;;5001138;28;20170;-83
2023/03/30 05:37:55;;;;;;;76.43;7.90;;;14.30;57.10;;;;;;5000492;28;20429;-83
2023/03/30 05:40:22;;;;;;;72.40;6.70;;;14.40;54.40;;;;;;4996746;28;20489;-83
2023/03/30 05:42:47;;;;;;;70.60;6.50;;;14.40;53.70;;;;;;4996274;28;20465;-83
2023/03/30 05:45:13;;;;;;;73.67;6.90;;;14.50;53.90;;;;;;4995992;28;20410;-82
2023/03/30 05:47:39;;;;;;;77.23;6.90;;;14.50;52.20;;;;;;4999441;28;20159;-84
2023/03/30 05:50:06;;;;;;;74.33;6.83;;;14.50;48.50;;;;;;5006296;28;20477;-83
2023/03/30 05:52:32;;;;;;;69.20;7.60;;;14.50;50.10;;;;;;5004257;28;20186;-84
2023/03/30 05:54:58;;;;;;;78.00;7.07;;;14.50;51.40;;;;;;5090829;22;20550;-87
2023/03/30 05:57:23;;;;;;;68.90;7.20;;;14.50;53.10;;;;;;5021853;28;20172;-87
2023/03/30 05:59:49;;;;;;;74.03;7.20;;;14.50;54.50;;;;;;5020556;28;20170;-87
2023/03/30 06:02:16;;;;;;;73.90;6.77;;;14.60;50.10;;;;;;5021182;28;20542;-87
2023/03/30 06:04:42;;;;;;;70.80;6.70;;;14.60;53.70;;;;;;5021036;28;20220;-87
2023/03/30 06:07:09;;;;;;;71.70;7.93;;;14.60;52.20;;;;;;5021264;28;20409;-88
2023/03/30 06:09:35;;;;;;;73.37;7.30;;;14.60;53.50;;;;;;5021746;28;20417;-87
2023/03/30 06:12:01;;;;;;;77.23;7.40;;;14.50;55.70;;;;;;5022630;28;20431;-87
2023/03/30 06:14:27;;;;;;;81.40;8.80;;;14.50;58.40;;;;;;5020853;28;20460;-87
2023/03/30 06:16:52;;;;;;;79.77;8.40;;;14.50;59.60;;;;;;5022855;28;20396;-87
2023/03/30 06:19:18;;;;;;;81.23;6.80;;;14.50;62.90;;;;;;5021312;28;20169;-87
2023/03/30 06:21:44;;;;;;;74.20;7.70;;;14.60;58.80;;;;;;5023334;28;20193;-85
2023/03/30 06:24:09;;;;;;;83.10;7.50;;;14.60;57.20;;;;;;5022001;28;20205;-84
2023/03/30 06:26:36;;;;;;;72.80;7.37;;;14.60;59.50;;;;;;5019955;28;20173;-84
2023/03/30 06:29:03;;;;;;;68.63;6.40;;;14.60;63.90;;;;;;5019893;28;20162;-85
2023/03/30 06:31:29;;;;;;;70.00;7.20;;;14.50;60.10;;;;;;5020637;28;20427;-85
2023/03/30 06:33:55;;;;;;;72.50;7.17;;;14.60;60.40;;;;;;5020732;28;20885;-85
2023/03/30 06:36:20;;;;;;;74.60;6.67;;;14.60;61.10;;;;;;5019827;28;20416;-85
2023/03/30 06:38:47;;;;;;;74.80;6.57;;;14.60;60.50;;;;;;5020726;28;20409;-85
2023/03/30 06:41:14;;;;;;;71.77;6.60;;;14.60;60.10;;;;;;5021506;28;20165;-85
2023/03/30 06:43:40;;;;;;;71.10;6.97;;;14.60;61.40;;;;;;5021360;28;20421;-85
2023/03/30 06:46:07;;;;;;;70.70;8.73;;;14.60;67.80;;;;;;5021183;28;20392;-85
2023/03/30 06:48:33;;;;;;;72.30;8.67;;;14.50;73.00;;;;;;5020553;28;20539;-85
2023/03/30 06:50:59;;;;;;;81.90;9.17;;;14.60;75.30;;;;;;5020209;28;20439;-85
2023/03/30 06:53:25;;;;;;;72.47;7.90;;;14.60;80.90;;;;;;5021365;28;20186;-85
2023/03/30 06:55:56;;;;;;;70.77;9.93;;;14.60;81.80;;;;;;5021957;28;20150;-86
2023/03/30 06:58:23;;;;;;;69.87;10.17;;;14.60;78.00;;;;;;5021516;28;20385;-86
2023/03/30 07:00:49;;;;;;;74.10;9.73;;;14.50;81.10;;;;;;5021677;28;20411;-86
2023/03/30 07:03:18;;;;;;;78.60;9.57;;;14.50;85.60;;;;;;5021357;28;20894;-85
2023/03/30 07:05:51;;;;;;;76.80;8.43;;;14.50;81.60;;;;;;5021322;28;20533;-85
2023/03/30 07:08:17;;;;;;;74.43;9.40;;;14.50;79.40;;;;;;5019769;28;20436;-85
2023/03/30 07:10:44;;;;;;;74.57;10.17;;;14.50;79.70;;;;;;5020903;28;20381;-85
2023/03/30 07:13:10;;;;;;;76.30;8.20;;;14.50;80.30;;;;;;5019256;28;20441;-84
2023/03/30 07:15:36;;;;;;;69.60;8.00;;;14.70;80.10;;;;;;5019141;28;20415;-85
2023/03/30 07:18:02;;;;;;;73.67;7.17;;;14.80;73.70;;;;;;5020146;28;20470;-85
2023/03/30 07:20:28;;;;;;;74.33;7.57;;;14.90;68.70;;;;;;5018847;28;20533;-86
2023/03/30 07:22:53;;;;;;;76.30;6.10;;;14.90;67.00;;;;;;5019850;28;20449;-86
2023/03/30 07:25:19;;;;;;;71.93;5.87;;;15.10;57.90;;;;;;5021799;28;20138;-86
2023/03/30 07:27:46;;;;;;;67.47;4.80;;;15.20;45.60;;;;;;5020901;28;20158;-86
2023/03/30 07:30:13;;;;;;;70.70;5.13;;;15.30;39.20;;;;;;5020046;28;20228;-86
2023/03/30 07:32:39;;;;;;;69.57;6.07;;;15.30;39.30;;;;;;5020344;28;20421;-86
2023/03/30 07:35:07;;;;;;;69.77;5.80;;;15.40;39.60;;;;;;5021216;28;20916;-86
2023/03/30 07:37:34;;;;;;;67.10;4.60;;;15.50;41.70;;;;;;5021206;28;20901;-86
2023/03/30 07:40:00;;;;;;;68.53;4.47;;;15.50;37.30;;;;;;5021112;28;20404;-86
2023/03/30 07:42:25;;;;;;;70.77;4.90;;;15.60;32.20;;;;;;5020694;28;20448;-87
2023/03/30 07:44:51;;;;;;;70.63;4.10;;;15.60;35.80;;;;;;5019034;28;20170;-86
2023/03/30 07:47:17;;;;;;;65.77;4.50;;;15.50;26.90;;;;;;5019357;28;20220;-86
2023/03/30 07:49:43;;;;;;;68.20;4.37;;;15.50;32.40;;;;;;5020788;28;20423;-86
2023/03/30 07:52:09;;;;;;;69.43;4.27;;;15.60;33.10;;;;;;5020096;28;20198;-85
2023/03/30 07:54:35;;;;;;;67.37;3.90;;;15.60;37.10;;;;;;5019026;28;20185;-86
2023/03/30 07:57:00;;;;;;;68.67;4.47;;;15.70;30.50;;;;;;5020848;28;20423;-85
2023/03/30 07:59:26;;;;;;;71.60;4.47;;;15.60;35.90;;;;;;5020970;28;20184;-85
2023/03/30 08:01:53;;;;;;;66.90;3.77;;;15.70;25.60;;;;;;5019329;28;20197;-86
2023/03/30 08:04:20;;;;;;;65.47;4.30;;;15.60;22.60;;;;;;5019633;28;20440;-86
2023/03/30 08:06:48;;;;;;;68.70;4.00;;;15.70;19.30;;;;;;5020537;28;20405;-86
2023/03/30 08:09:14;;;;;;;68.03;3.93;;;15.60;15.00;;;;;;5019298;28;20412;-86
2023/03/30 08:11:40;;;;;;;66.40;4.13;;;15.60;14.00;;;;;;5020859;28;20415;-86
2023/03/30 08:14:06;;;;;;;66.20;3.87;;;15.60;14.40;;;;;;5019221;28;20436;-86
2023/03/30 08:16:32;;;;;;;70.83;3.73;;;15.60;15.00;;;;;;5018650;28;20417;-86
2023/03/30 08:18:58;;;;;;;70.53;6.10;;;15.60;16.70;;;;;;5020150;28;20169;-86
2023/03/30 08:21:25;;;;;;;68.47;4.00;;;15.70;14.70;;;;;;5021438;28;20436;-86
2023/03/30 08:23:56;;;;;;;66.90;4.00;;;15.70;12.50;;;;;;5021068;28;20463;-86
2023/03/30 08:26:22;;;;;;;66.37;3.97;;;15.60;14.00;;;;;;5020039;28;20912;-85
2023/03/30 08:28:49;;;;;;;71.40;4.30;;;15.60;14.30;;;;;;5019271;28;20446;-86
2023/03/30 08:31:17;;;;;;;66.53;3.77;;;15.60;10.70;;;;;;5022916;28;20400;-86
2023/03/30 08:33:43;;;;;;;73.40;4.37;;;15.70;12.00;;;;;;5024444;28;20416;-85
2023/03/30 08:36:11;;;;;;;70.00;4.03;;;15.70;7.90;;;;;;5022970;28;20412;-85
2023/03/30 08:38:38;;;;;;;70.17;4.10;;;15.90;12.90;;;;;;5024132;28;20412;-85
2023/03/30 08:41:17;;;;;;;73.43;4.50;;;15.90;11.30;;;;;;5023218;28;20405;-85
2023/03/30 08:44:00;;;;;;;69.67;4.80;;;15.90;9.00;;;;;;5023729;28;20424;-85
2023/03/30 08:46:27;;;;;;;66.70;5.00;;;16.00;8.40;;;;;;5023425;28;20437;-85
2023/03/30 08:48:56;;;;;;;65.63;4.60;;;16.10;1.00;;;;;;5024194;28;20393;-85
2023/03/30 08:51:27;;;;;;;73.27;6.20;;;16.00;1.00;;;;;;5022716;28;20476;-87
2023/03/30 08:54:05;;;;;;;66.87;4.97;;;16.10;1.00;;;;;;5022309;28;20813;-85
2023/03/30 08:56:50;;;;;;;68.53;5.20;;;16.10;1.00;;;;;;5024650;28;20381;-85
2023/03/30 08:59:36;;;;;;;67.03;4.70;;;16.20;1.00;;;;;;5023477;28;20377;-85
2023/03/30 09:02:16;;;;;;;66.53;4.83;;;16.30;1.00;;;;;;5023967;28;20428;-85
2023/03/30 09:05:00;;;;;;;73.03;4.90;;;16.40;1.00;;;;;;5023271;28;20495;-85
2023/03/30 09:08:01;;;;;;;68.57;5.87;;;16.50;1.00;;;;;;5021871;28;20401;-85
2023/03/30 09:10:33;;;;;;;68.10;5.57;;;16.60;2.40;;;;;;5008932;28;20780;-84
2023/03/30 09:13:02;;;;;;;67.73;5.47;;;16.50;1.30;;;;;;5021088;28;20432;-86
2023/03/30 09:15:34;;;;;;;72.70;6.00;;;16.40;1.00;;;;;;5023278;28;20397;-85
2023/03/30 09:18:30;;;;;;;68.80;6.07;;;16.20;4.50;;;;;;5022392;28;20392;-85
2023/03/30 09:21:01;;;;;;;70.00;4.97;;;16.00;5.90;;;;;;5020617;28;20420;-85
2023/03/30 09:23:29;;;;;;;69.00;4.50;;;15.90;10.00;;;;;;5022635;28;20539;-85
2023/03/30 09:26:38;;;;;;;70.00;4.90;;;15.90;14.70;;;;;;5022255;28;20404;-85
2023/03/30 09:29:17;;;;;;;66.07;3.80;;;15.70;20.50;;;;;;5023123;28;20393;-85
2023/03/30 09:32:05;;;;;;;66.80;3.83;;;15.60;39.60;;;;;;5023026;28;20385;-85
2023/03/30 09:34:47;;;;;;;72.77;5.10;;;15.40;40.50;;;;;;5022855;28;20426;-84
2023/03/30 09:37:17;;;;;;;72.10;4.73;;;15.30;50.00;;;;;;5022812;28;20923;-84
2023/03/30 09:39:47;;;;;;;69.17;5.50;;;15.10;56.10;;;;;;5022528;28;20500;-85
2023/03/30 09:42:50;;;;;;;68.97;5.37;;;14.80;63.50;;;;;;5021073;28;20436;-86
2023/03/30 09:45:29;;;;;;;68.23;6.80;;;14.10;74.80;;;;;;5022773;28;20388;-87
2023/03/30 09:47:55;;;;;;;72.47;11.85;;;13.40;90.60;;;;;;5021643;28;20463;-86
2023/03/30 09:50:29;;;;;;;73.63;15.50;;;12.80;99.90;;;;;;5021424;28;20185;-87
2023/03/30 09:53:02;;;;;;;86.32;26.65;;;12.60;99.90;;;;;;5021562;28;20224;-87
2023/03/30 09:55:31;;;;;;;70.93;8.60;;;12.40;99.90;;;;;;5019641;28;20261;-87
2023/03/30 09:58:18;;;;;;;66.50;6.57;;;12.20;99.90;;;;;;5017438;28;20645;-87
2023/03/30 10:00:45;;;;;;;67.50;8.38;;;12.00;99.90;;;;;;5018718;28;20182;-85
2023/03/30 10:03:21;;;;;;;68.30;10.65;;;11.80;99.90;;;;;;5041685;23;20226;-87
2023/03/30 10:06:01;;;;;;;74.45;11.88;;;11.70;99.90;;;;;;5018679;28;20170;-88
2023/03/30 10:08:27;;;;;;;69.07;9.45;;;11.80;99.90;;;;;;5021491;28;20159;-88
2023/03/30 10:10:55;;;;;;;67.90;10.50;;;11.90;99.90;;;;;;5022349;28;20158;-88
2023/03/30 10:13:40;;;;;;;69.95;15.60;;;12.10;99.90;;;;;;5019017;28;20637;-87
2023/03/30 10:16:20;;;;;;;72.32;16.00;;;12.40;99.90;;;;;;5022507;28;20491;-87
2023/03/30 10:18:53;;;;;;;75.15;19.33;;;12.60;99.90;;;;;;5021062;28;20147;-87
2023/03/30 10:21:26;;;;;;;69.88;13.75;;;12.60;99.90;;;;;;5020208;28;20150;-87
2023/03/30 10:24:08;;;;;;;68.68;12.63;;;12.70;99.90;;;;;;5021371;28;20196;-87
2023/03/30 10:26:43;;;;;;;70.55;14.65;;;12.80;99.90;;;;;;5020262;28;20173;-87
2023/03/30 10:29:13;;;;;;;68.43;11.93;;;12.90;99.90;;;;;;5021334;28;20161;-87
2023/03/30 10:31:43;;;;;;;67.65;10.95;;;12.90;99.90;;;;;;5021013;28;20200;-87
2023/03/30 10:35:05;;;;;;;68.10;10.20;;;12.90;99.90;;;;;;5020267;28;20181;-87
2023/03/30 10:37:34;;;;;;;71.10;11.50;;;13.00;99.90;;;;;;5009664;28;20186;-87
2023/03/30 10:40:08;;;;;;;67.60;9.93;;;13.10;99.90;;;;;;5019750;28;20174;-88
2023/03/30 10:42:35;;;;;;;67.97;10.80;;;13.20;99.90;;;;;;5021058;28;20192;-87
2023/03/30 10:45:04;;;;;;;67.07;10.93;;;13.40;99.90;;;;;;5020461;28;20177;-87
2023/03/30 10:47:36;;;;;;;69.35;12.38;;;13.80;99.90;;;;;;5020066;28;20166;-87
2023/03/30 10:50:53;;;;;;;69.32;6.07;;;14.20;99.90;;;;;;5020272;28;20173;-87
2023/03/30 10:53:21;;;;;;;68.57;6.82;;;14.30;99.90;;;;;;4940734;29;20205;-87
2023/03/30 10:56:05;;;;;;;67.85;11.60;;;14.50;99.90;;;;;;4941253;29;20185;-87
2023/03/30 10:58:49;;;;;;;68.90;14.60;;;14.60;94.10;;;;;;4989491;28;20595;-87
2023/03/30 11:01:28;;;;;;;69.13;14.70;;;14.50;91.80;;;;;;5021726;28;20184;-87
2023/03/30 11:04:00;;;;;;;69.50;13.32;;;14.50;95.40;;;;;;5019165;28;20212;-87
2023/03/30 11:06:31;;;;;;;69.07;13.13;;;14.60;95.90;;;;;;5019149;28;20230;-87
2023/03/30 11:09:02;;;;;;;69.83;14.20;;;14.70;94.70;;;;;;5021749;28;20396;-86
2023/03/30 11:11:38;;;;;;;71.00;17.53;;;14.80;93.00;;;;;;5019385;28;20401;-86
2023/03/30 11:14:10;;;;;;;70.00;14.47;;;14.90;94.10;;;;;;5020498;28;20424;-87
2023/03/30 11:16:53;;;;;;;71.60;14.90;;;15.20;97.00;;;;;;5021199;28;20393;-87
2023/03/30 11:19:29;;;;;;;70.00;6.80;;;15.50;90.70;;;;;;5020798;28;20492;-87
2023/03/30 11:21:58;;;;;;;73.70;7.50;;;15.40;65.50;;;;;;5020397;28;20416;-86
2023/03/30 11:24:26;;;;;;;68.00;7.50;;;15.30;70.90;;;;;;5021154;28;20431;-86
2023/03/30 11:27:02;;;;;;;66.43;6.13;;;15.20;78.60;;;;;;5019716;28;20413;-86
2023/03/30 11:29:53;;;;;;;71.27;7.27;;;15.10;80.50;;;;;;5020993;28;20405;-87
2023/03/30 11:32:37;;;;;;;70.37;7.87;;;15.00;87.30;;;;;;5020319;28;20451;-87
2023/03/30 11:35:11;;;;;;;68.47;5.90;;;15.00;90.20;;;;;;5020903;28;20393;-86
2023/03/30 11:37:57;;;;;;;76.87;8.00;;;14.90;74.10;;;;;;5020657;28;20392;-86
2023/03/30 11:40:27;;;;;;;73.63;8.50;;;15.00;76.40;;;;;;5020558;28;20425;-87
2023/03/30 11:42:53;;;;;;;72.40;6.60;;;15.30;78.60;;;;;;5020970;28;20495;-86
2023/03/30 11:45:25;;;;;;;71.63;6.37;;;15.70;69.50;;;;;;5019761;28;20570;-86
2023/03/30 11:48:23;;;;;;;66.37;3.60;;;16.10;53.90;;;;;;5021128;28;20747;-87
2023/03/30 11:51:04;;;;;;;65.83;2.67;;;16.40;27.10;;;;;;5019519;28;20791;-87
2023/03/30 11:53:51;;;;;;;66.07;2.40;;;16.60;16.40;;;;;;5087203;22;20448;-82
2023/03/30 11:56:36;;;;;;;64.83;4.13;;;16.50;13.00;;;;;;4995796;28;20428;-80
2023/03/30 11:59:12;;;;;;;65.17;3.60;;;16.50;4.80;;;;;;4996945;28;20421;-81
2023/03/30 12:01:41;;;;;;;65.10;4.10;;;16.70;1.00;;;;;;4997562;28;20378;-80
2023/03/30 12:04:10;;;;;;;68.00;5.37;;;16.80;1.00;;;;;;4995512;28;20426;-78
2023/03/30 12:06:51;;;;;;;66.10;5.00;;;17.00;1.00;;;;;;4996273;28;20399;-79
2023/03/30 12:09:26;;;;;;;67.87;4.97;;;17.20;1.00;;;;;;4996566;28;20413;-79
2023/03/30 12:12:10;;;;;;;65.87;4.60;;;17.20;1.00;;;;;;4995484;28;20445;-79
2023/03/30 12:14:57;;;;;;;67.30;4.20;;;17.40;1.00;;;;;;4994961;28;20418;-78
2023/03/30 12:17:35;;;;;;;66.33;3.97;;;17.60;1.00;;;;;;4996974;28;20382;-78
2023/03/30 12:20:34;;;;;;;70.33;4.90;;;17.50;1.00;;;;;;4995585;28;20404;-78
2023/03/30 12:23:12;;;;;;;70.90;4.73;;;17.50;1.00;;;;;;4996643;28;20950;-79
2023/03/30 12:26:09;;;;;;;68.50;4.60;;;17.50;1.00;;;;;;4995781;28;20827;-79
2023/03/30 12:29:00;;;;;;;68.13;4.80;;;17.30;1.00;;;;;;4997085;28;20785;-79
2023/03/30 12:31:52;;;;;;;66.70;5.00;;;16.80;1.00;;;;;;4995439;28;20407;-78
2023/03/30 12:34:19;;;;;;;69.00;5.17;;;16.80;1.70;;;;;;4995578;28;20980;-79
2023/03/30 12:37:20;;;;;;;69.07;5.23;;;16.60;3.60;;;;;;4996409;28;20405;-79
2023/03/30 12:40:05;;;;;;;66.60;4.97;;;16.40;1.50;;;;;;4986316;28;20542;-78
2023/03/30 12:42:54;;;;;;;69.37;5.17;;;16.40;9.00;;;;;;4995776;28;20520;-79
2023/03/30 12:45:23;;;;;;;71.00;5.70;;;16.50;5.70;;;;;;4995616;28;20501;-78
2023/03/30 12:48:07;;;;;;;70.30;6.03;;;16.60;6.60;;;;;;4996458;28;20398;-78
2023/03/30 12:50:42;;;;;;;72.10;5.90;;;16.90;2.30;;;;;;4996048;28;20414;-78
2023/03/30 12:53:44;;;;;;;73.30;6.10;;;17.20;1.00;;;;;;4996997;28;20446;-78
2023/03/30 12:56:56;;;;;;;71.93;4.90;;;17.60;3.20;;;;;;4996955;28;20382;-80
2023/03/30 12:59:34;;;;;;;67.20;3.97;;;17.70;1.00;;;;;;4936587;29;20928;-78
2023/03/30 13:02:28;;;;;;;71.20;4.83;;;17.50;1.00;;;;;;4936567;29;20410;-79
2023/03/30 13:04:54;;;;;;;71.80;5.67;;;17.20;1.00;;;;;;4980966;28;20446;-78
2023/03/30 13:07:23;;;;;;;71.70;5.77;;;16.80;1.00;;;;;;4996358;28;20400;-78